FSBRASIL

...



 INFORMAÇÕES METEOROLÓGICAS
METAR FOR LIBD
ADDS - METARS form results

(1813 UTC 26 February 2021)
Data provider http://aviationweather.gov/metar/data/
 
METAR text: LIBD 261750Z 26004KT 8000 NSC 11/05 Q1025
Conditions at: LIBD (BARI/PALESE MACC, IT) observed 1750 UTC 26 February 2021
Temperature: 11.0°C (52°F)
Dewpoint: 5.0°C (41°F) [RH = 66%]
Pressure (altimeter): 30.27 inches Hg (1025.0 mb)
Winds: from the W (260 degrees) at 5 MPH (4 knots; 2.1 m/s)
Visibility: 5 miles ( 8 km)
Ceiling: at least 12,000 feet AGL
Clouds: sky clear below 12,000 feet AGL
Weather: no significant weather observed at this time

METAR text: LIBD 261720Z 25003KT 8000 NSC 11/06 Q1025
Conditions at: LIBD (BARI/PALESE MACC, IT) observed 1720 UTC 26 February 2021
Temperature: 11.0°C (52°F)
Dewpoint: 6.0°C (43°F) [RH = 71%]
Pressure (altimeter): 30.27 inches Hg (1025.0 mb)
Winds: from the WSW (250 degrees) at 3 MPH (3 knots; 1.5 m/s)
Visibility: 5 miles ( 8 km)
Ceiling: at least 12,000 feet AGL
Clouds: sky clear below 12,000 feet AGL
Weather: no significant weather observed at this time

Forecast for: LIBD (BARI/PALESE MACC, IT)
Text: TAF LIBD 261700Z 2618/2718 VRB05KT 8000 NSC
Forecast period: 1800 UTC 26 February 2021 to 0700 UTC 27 February 2021
Forecast type: FROM: standard forecast or significant change
Winds: variable direction winds at 6 MPH (5 knots; 2.6 m/s)
Visibility: 5 miles (8 km)
Ceiling: unknown
Clouds: missing
Weather: no significant weather forecast for this period
Text: BECMG 2707/2709 35011KT
Forecast period: 0700 to 1800 UTC 27 February 2021
Forecast type: BECOMING: Conditions expected to become as follows by 0900 UTC 27 February 2021
Winds: from the N (350 degrees) at 13 MPH (11 knots; 5.7 m/s)
Visibility: 5 miles (8 km)
Ceiling: unknown
Clouds: missing
Weather: no significant weather forecast for this period

 MAPA DO AEROPORTO

 INFORMAÇÕES DA PISTA